Time;durP1;ratioP1;P1;durP2;ratioP2;P2;SDS_P1;SDS_P2;PMS_P1;PMS_P2;Temp;Humidity;BMP_temperature;BMP_pressure;BME280_temperature;BME280_humidity;BME280_pressure;Samples;Min_cycle;Max_cycle;Signal;HPM_P1;HPM_P2
2023/06/19 00:00:15;;;;;;;;;;;;;;;30.85;31.40;94048.09;4980882;28;8716;-62
2023/06/19 00:02:53;;;;;;;;;;;;;;;30.80;30.40;94047.00;5006127;28;7038;-62
2023/06/19 00:05:28;;;;;;;;;;;;;;;30.79;30.52;94051.06;4983804;28;7114;-62
2023/06/19 00:08:05;;;;;;;;;;;;;;;30.80;31.42;94057.38;4980712;28;9449;-62
2023/06/19 00:10:33;;;;;;;;;;;;;;;30.80;30.24;94051.81;4971765;28;7045;-62
2023/06/19 00:13:28;;;;;;;;;;;;;;;30.78;31.35;94057.16;4973461;28;9035;-62
2023/06/19 00:16:25;;;;;;;;;;;;;;;30.79;31.41;94058.66;4975087;28;9251;-62
2023/06/19 00:19:11;;;;;;;;;;;;;;;30.78;31.55;94052.34;4950002;28;7271;-62
2023/06/19 00:21:38;;;;;;;;;;;;;;;30.74;31.18;94051.97;4961845;28;7014;-62
2023/06/19 00:24:09;;;;;;;;;;;;;;;30.75;30.22;94041.63;4958594;28;7253;-62
2023/06/19 00:27:09;;;;;;;;;;;;;;;30.79;31.03;94050.31;4934027;28;7163;-61
2023/06/19 00:30:05;;;;;;;;;;;;;;;30.78;31.41;94054.38;4960798;28;9257;-62
2023/06/19 00:32:49;;;;;;;;;;;;;;;30.75;30.49;94047.94;4948827;28;7547;-62
2023/06/19 00:35:27;;;;;;;;;;;;;;;30.74;30.65;94051.25;4962974;28;8913;-62
2023/06/19 00:37:54;;;;;;;;;;;;;;;30.74;30.47;94054.00;4962225;28;8845;-62
2023/06/19 00:40:38;;;;;;;;;;;;;;;30.73;30.43;94058.84;4962484;28;7207;-62
2023/06/19 00:43:18;;;;;;;;;;;;;;;30.75;31.20;94063.84;4962714;28;8780;-61
2023/06/19 00:45:58;;;;;;;;;;;;;;;30.76;30.77;94068.09;4932496;28;8232;-62
2023/06/19 00:48:34;;;;;;;;;;;;;;;30.74;30.67;94070.66;4947374;28;9121;-62
2023/06/19 00:51:37;;;;;;;;;;;;;;;30.71;30.37;94077.34;4935838;28;9222;-61
2023/06/19 00:54:05;;;;;;;;;;;;;;;30.74;31.16;94074.19;4860595;29;7273;-62
2023/06/19 00:56:40;;;;;;;;;;;;;;;30.73;31.66;94077.53;4925578;29;7274;-61
2023/06/19 00:59:20;;;;;;;;;;;;;;;30.71;30.73;94069.75;4911623;29;7361;-61
2023/06/19 01:01:50;;;;;;;;;;;;;;;30.70;30.95;94076.59;4930341;28;7008;-62
2023/06/19 01:04:21;;;;;;;;;;;;;;;30.68;30.60;94073.63;4927776;28;7289;-62
2023/06/19 01:07:03;;;;;;;;;;;;;;;30.72;30.47;94078.81;4925984;28;9236;-61
2023/06/19 01:09:33;;;;;;;;;;;;;;;30.73;30.77;94077.53;4926475;29;7286;-61
2023/06/19 01:12:12;;;;;;;;;;;;;;;30.71;30.95;94071.78;4927291;28;7057;-61
2023/06/19 01:14:54;;;;;;;;;;;;;;;30.70;31.20;94073.06;4928859;29;7283;-61
2023/06/19 01:17:21;;;;;;;;;;;;;;;30.71;31.01;94077.34;4927939;29;7169;-61
2023/06/19 01:19:48;;;;;;;;;;;;;;;30.70;30.92;94079.38;4922709;29;9393;-61
2023/06/19 01:22:34;;;;;;;;;;;;;;;30.70;30.51;94082.16;4923211;28;7218;-61
2023/06/19 01:25:00;;;;;;;;;;;;;;;30.70;30.64;94093.25;4928249;28;9172;-62
2023/06/19 01:27:37;;;;;;;;;;;;;;;30.70;30.55;94084.94;4952593;28;7527;-62
2023/06/19 01:30:05;;;;;;;;;;;;;;;30.69;31.23;94088.25;5054294;28;9166;-61
2023/06/19 01:32:39;;;;;;;;;;;;;;;30.70;31.11;94103.63;5037973;28;7024;-62
2023/06/19 01:35:35;;;;;;;;;;;;;;;30.68;31.43;94097.88;5035256;28;7258;-62
2023/06/19 01:38:25;;;;;;;;;;;;;;;30.66;31.26;94103.25;4981736;28;7332;-61
2023/06/19 01:41:01;;;;;;;;;;;;;;;30.64;31.50;94103.06;4966136;28;7556;-62
2023/06/19 01:43:57;;;;;;;;;;;;;;;30.63;31.77;94105.09;4989900;28;9001;-62
2023/06/19 01:46:51;;;;;;;;;;;;;;;30.63;30.58;94110.63;4988550;28;9085;-62
2023/06/19 01:49:27;;;;;;;;;;;;;;;30.62;30.74;94113.97;4988909;28;7129;-62
2023/06/19 01:52:05;;;;;;;;;;;;;;;30.59;31.11;94115.06;4985847;28;7342;-62
2023/06/19 01:54:32;;;;;;;;;;;;;;;30.57;31.82;94123.19;4984597;28;7334;-61
2023/06/19 01:57:19;;;;;;;;;;;;;;;30.55;31.58;94126.53;4985497;28;7909;-62
2023/06/19 02:00:07;;;;;;;;;;;;;;;30.58;31.71;94127.47;4959948;28;9022;-61
2023/06/19 02:02:53;;;;;;;;;;;;;;;30.58;31.18;94136.53;4969527;28;9040;-61
2023/06/19 02:05:19;;;;;;;;;;;;;;;30.60;31.04;94138.75;4967073;28;7041;-61
2023/06/19 02:08:09;;;;;;;;;;;;;;;30.59;31.91;94137.28;4963614;28;8963;-62
2023/06/19 02:10:43;;;;;;;;;;;;;;;30.58;30.80;94163.56;4965989;28;7003;-62
2023/06/19 02:13:18;;;;;;;;;;;;;;;30.57;30.91;94159.28;4983652;28;7169;-62
2023/06/19 02:16:05;;;;;;;;;;;;;;;30.56;31.30;94166.88;5038857;28;9086;-62
2023/06/19 02:18:48;;;;;;;;;;;;;;;30.52;31.38;94170.00;5035256;28;7343;-61
2023/06/19 02:21:23;;;;;;;;;;;;;;;30.54;31.21;94180.56;5021935;28;8882;-62
2023/06/19 02:23:51;;;;;;;;;;;;;;;30.56;30.62;94188.34;5031102;28;8037;-61
2023/06/19 02:26:43;;;;;;;;;;;;;;;30.58;31.33;94191.31;5037947;28;7062;-62
2023/06/19 02:29:22;;;;;;;;;;;;;;;30.58;31.81;94194.09;5052820;28;7059;-61
2023/06/19 02:31:59;;;;;;;;;;;;;;;30.56;31.09;94205.00;5031011;28;9339;-61
2023/06/19 02:34:37;;;;;;;;;;;;;;;30.54;30.66;94213.88;5014304;28;7247;-62
2023/06/19 02:37:08;;;;;;;;;;;;;;;30.57;30.90;94223.13;5037737;28;7039;-62
2023/06/19 02:39:48;;;;;;;;;;;;;;;30.57;31.65;94223.13;5036952;28;7263;-62
2023/06/19 02:42:22;;;;;;;;;;;;;;;30.57;31.38;94228.69;5035232;28;7703;-62
2023/06/19 02:44:50;;;;;;;;;;;;;;;30.57;31.20;94223.13;5031283;28;9111;-61
2023/06/19 02:47:55;;;;;;;;;;;;;;;30.57;30.83;94228.69;5034194;28;7277;-61
2023/06/19 02:50:30;;;;;;;;;;;;;;;30.56;31.49;94227.94;5049906;28;7266;-61
2023/06/19 02:53:30;;;;;;;;;;;;;;;30.57;31.31;94239.78;5034738;28;9044;-62
2023/06/19 02:56:15;;;;;;;;;;;;;;;30.55;31.59;94240.34;5028092;28;7262;-61
2023/06/19 02:59:39;;;;;;;;;;;;;;;30.54;31.21;94241.63;5014293;28;7245;-61
2023/06/19 03:02:09;;;;;;;;;;;;;;;30.51;32.14;94245.50;5008106;28;7214;-62
2023/06/19 03:05:05;;;;;;;;;;;;;;;30.52;31.62;94239.41;4989806;28;9532;-62
2023/06/19 03:07:32;;;;;;;;;;;;;;;30.50;31.21;94241.22;5009245;28;7117;-62
2023/06/19 03:10:06;;;;;;;;;;;;;;;30.51;31.01;94245.50;4990719;28;9028;-62
2023/06/19 03:13:06;;;;;;;;;;;;;;;30.52;31.57;94256.06;4993190;28;7151;-62
2023/06/19 03:15:49;;;;;;;;;;;;;;;30.52;31.18;94247.72;5009097;28;7135;-62
2023/06/19 03:18:25;;;;;;;;;;;;;;;30.49;32.07;94243.25;5010977;28;7258;-62
2023/06/19 03:20:51;;;;;;;;;;;;;;;30.52;32.25;94253.28;5010292;28;7239;-62
2023/06/19 03:23:33;;;;;;;;;;;;;;;30.49;32.36;94246.03;5012759;28;9185;-62
2023/06/19 03:26:26;;;;;;;;;;;;;;;30.50;31.88;94244.75;5012915;28;8907;-62
2023/06/19 03:28:52;;;;;;;;;;;;;;;30.51;31.33;94245.50;5010778;28;8630;-62
2023/06/19 03:31:19;;;;;;;;;;;;;;;30.48;31.30;94249.38;5012295;28;7357;-62
2023/06/19 03:34:06;;;;;;;;;;;;;;;30.46;32.00;94252.69;5019422;28;7356;-62
2023/06/19 03:36:44;;;;;;;;;;;;;;;30.47;32.56;94251.41;5030728;28;7135;-62
2023/06/19 03:39:15;;;;;;;;;;;;;;;30.46;32.38;94266.56;5041980;28;7052;-62
2023/06/19 03:42:11;;;;;;;;;;;;;;;30.47;31.63;94264.56;5035320;28;9285;-62
2023/06/19 03:45:21;;;;;;;;;;;;;;;30.47;32.14;94259.72;4983131;28;9095;-62
2023/06/19 03:47:57;;;;;;;;;;;;;;;30.48;31.73;94255.66;4982252;28;9238;-62
2023/06/19 03:50:58;;;;;;;;;;;;;;;30.48;32.91;94263.25;4987862;28;7829;-62
2023/06/19 03:54:08;;;;;;;;;;;;;;;30.48;31.64;94266.03;4965170;28;7341;-62
2023/06/19 03:56:45;;;;;;;;;;;;;;;30.45;32.67;94267.84;4955050;28;7372;-62
2023/06/19 03:59:14;;;;;;;;;;;;;;;30.46;31.75;94263.06;4955023;28;9658;-62
2023/06/19 04:01:55;;;;;;;;;;;;;;;30.44;31.88;94268.41;4963887;28;7056;-62
2023/06/19 04:04:34;;;;;;;;;;;;;;;30.43;32.83;94275.97;4946572;28;7759;-62
2023/06/19 04:07:05;;;;;;;;;;;;;;;30.42;32.89;94277.28;4963127;28;7195;-63
2023/06/19 04:10:11;;;;;;;;;;;;;;;30.39;31.90;94277.63;4954991;28;7220;-62
2023/06/19 04:13:08;;;;;;;;;;;;;;;30.40;32.63;94290.97;4956104;28;8639;-61
2023/06/19 04:15:35;;;;;;;;;;;;;;;30.40;32.75;94288.19;4903678;29;8708;-62
2023/06/19 04:18:12;;;;;;;;;;;;;;;30.39;33.05;94283.91;4880102;29;7465;-62
2023/06/19 04:20:38;;;;;;;;;;;;;;;30.38;32.27;94284.47;4906496;29;7295;-61
2023/06/19 04:23:35;;;;;;;;;;;;;;;30.37;33.12;94274.66;4929146;28;7126;-61
2023/06/19 04:26:14;;;;;;;;;;;;;;;30.37;32.59;94277.41;4868600;29;9799;-61
2023/06/19 04:28:51;;;;;;;;;;;;;;;30.35;32.50;94277.22;4868381;29;7025;-62
2023/06/19 04:31:18;;;;;;;;;;;;;;;30.35;32.64;94280.00;4882548;29;7313;-61
2023/06/19 04:33:45;;;;;;;;;;;;;;;30.37;32.52;94289.28;4880870;29;9668;-62
2023/06/19 04:36:27;;;;;;;;;;;;;;;30.35;32.37;94285.56;4888309;29;8732;-62
2023/06/19 04:38:54;;;;;;;;;;;;;;;30.35;32.67;94291.84;4885002;29;9122;-62
2023/06/19 04:41:32;;;;;;;;;;;;;;;30.33;33.72;94294.44;4886359;29;7145;-62
2023/06/19 04:44:03;;;;;;;;;;;;;;;30.34;33.54;94307.00;4885878;29;7256;-62
2023/06/19 04:47:15;;;;;;;;;;;;;;;30.34;33.49;94314.59;4871733;29;9236;-62
2023/06/19 04:49:55;;;;;;;;;;;;;;;30.32;33.29;94319.97;4848758;29;9302;-63
2023/06/19 04:52:34;;;;;;;;;;;;;;;30.37;35.11;94330.91;4894574;29;7349;-63
2023/06/19 04:55:01;;;;;;;;;;;;;;;30.42;34.58;94338.34;4919470;29;7019;-62
2023/06/19 04:57:57;;;;;;;;;;;;;;;30.45;34.00;94348.34;4922486;29;8656;-63
2023/06/19 05:00:23;;;;;;;;;;;;;;;30.43;34.55;94345.38;4871139;29;7272;-63
2023/06/19 05:02:52;;;;;;;;;;;;;;;30.45;33.75;94331.69;4887251;29;7153;-62
2023/06/19 05:05:33;;;;;;;;;;;;;;;30.44;34.05;94333.00;4912414;29;7236;-60
2023/06/19 05:08:04;;;;;;;;;;;;;;;30.40;34.00;94331.84;4897696;29;7119;-61
2023/06/19 05:10:46;;;;;;;;;;;;;;;30.40;33.73;94329.81;4910660;29;7249;-61
2023/06/19 05:13:12;;;;;;;;;;;;;;;30.37;34.16;94324.59;4908708;29;8715;-62
2023/06/19 05:15:48;;;;;;;;;;;;;;;30.33;34.47;94313.84;4913373;29;9101;-62
2023/06/19 05:18:17;;;;;;;;;;;;;;;30.34;34.23;94329.19;4903874;29;8854;-61
2023/06/19 05:20:56;;;;;;;;;;;;;;;30.31;34.11;94335.84;4897290;29;7290;-61
2023/06/19 05:23:22;;;;;;;;;;;;;;;30.32;34.03;94329.00;4908901;29;7586;-61
2023/06/19 05:26:03;;;;;;;;;;;;;;;30.36;34.34;94323.13;4919617;28;9038;-61
2023/06/19 05:28:40;;;;;;;;;;;;;;;30.39;34.79;94322.78;4948380;28;9453;-62
2023/06/19 05:31:19;;;;;;;;;;;;;;;30.41;34.26;94316.66;4947407;28;9078;-61
2023/06/19 05:34:01;;;;;;;;;;;;;;;30.37;34.23;94322.56;4962995;28;7265;-61
2023/06/19 05:36:58;;;;;;;;;;;;;;;30.36;34.92;94312.75;4958162;28;7499;-61
2023/06/19 05:39:26;;;;;;;;;;;;;;;30.35;34.23;94311.28;4962648;28;7034;-61
2023/06/19 05:42:13;;;;;;;;;;;;;;;30.33;33.80;94294.44;4994852;28;9186;-61
2023/06/19 05:44:40;;;;;;;;;;;;;;;30.37;34.75;94300.38;4989134;28;7307;-61
2023/06/19 05:47:26;;;;;;;;;;;;;;;30.37;35.27;94305.16;4979275;28;7478;-61
2023/06/19 05:49:53;;;;;;;;;;;;;;;30.35;33.85;94297.41;4994099;28;7266;-61
2023/06/19 05:52:28;;;;;;;;;;;;;;;30.36;34.59;94295.38;4977039;28;8789;-61
2023/06/19 05:55:28;;;;;;;;;;;;;;;30.38;34.08;94292.78;4963155;28;7089;-61
2023/06/19 05:58:21;;;;;;;;;;;;;;;30.34;34.90;94287.56;4941033;28;7050;-62
2023/06/19 06:00:47;;;;;;;;;;;;;;;30.32;34.90;94287.38;4932607;29;7269;-61
2023/06/19 06:03:30;;;;;;;;;;;;;;;30.26;35.12;94280.47;4913805;28;9120;-61
2023/06/19 06:06:02;;;;;;;;;;;;;;;30.21;36.07;94268.22;4936932;28;7152;-62
2023/06/19 06:08:29;;;;;;;;;;;;;;;30.16;35.75;94262.84;4938914;28;8229;-61
2023/06/19 06:10:57;;;;;;;;;;;;;;;30.12;35.39;94263.19;4927827;29;8945;-62
2023/06/19 06:13:23;;;;;;;;;;;;;;;30.13;36.27;94263.91;4917987;28;7291;-61
2023/06/19 06:15:51;;;;;;;;;;;;;;;30.14;35.54;94263.38;4958490;28;7029;-62
2023/06/19 06:18:19;;;;;;;;;;;;;;;30.16;35.61;94268.38;4983788;28;7269;-62
2023/06/19 06:20:47;;;;;;;;;;;;;;;30.16;36.10;94266.34;4984323;28;7988;-62
2023/06/19 06:23:13;;;;;;;;;;;;;;;30.17;36.15;94267.81;4984715;28;7160;-62
2023/06/19 06:25:50;;;;;;;;;;;;;;;30.17;35.21;94269.84;4986678;28;7190;-61
2023/06/19 06:28:38;;;;;;;;;;;;;;;30.16;36.65;94258.03;4988303;28;7063;-61
2023/06/19 06:31:04;;;;;;;;;;;;;;;30.14;36.61;94263.38;4988795;28;9029;-61
2023/06/19 06:33:31;;;;;;;;;;;;;;;30.14;35.80;94257.84;5011124;28;8292;-62
2023/06/19 06:36:02;;;;;;;;;;;;;;;30.17;36.40;94256.72;5035162;28;7329;-61
2023/06/19 06:38:29;;;;;;;;;;;;;;;30.17;36.02;94244.88;5030544;28;7055;-62
2023/06/19 06:40:59;;;;;;;;;;;;;;;30.21;35.85;94251.56;5028825;28;9241;-61
2023/06/19 06:43:32;;;;;;;;;;;;;;;30.21;36.80;94251.56;5014055;28;7205;-61
2023/06/19 06:45:59;;;;;;;;;;;;;;;30.22;36.66;94246.78;5030605;28;6869;-62
2023/06/19 06:48:43;;;;;;;;;;;;;;;30.24;35.97;94241.41;5020677;28;7111;-62
2023/06/19 06:51:11;;;;;;;;;;;;;;;30.23;36.16;94245.50;5038117;28;7040;-62
2023/06/19 06:53:49;;;;;;;;;;;;;;;30.22;36.98;94238.44;5041770;28;7040;-62
2023/06/19 06:56:39;;;;;;;;;;;;;;;30.23;37.42;94235.13;5043143;28;8702;-62
2023/06/19 06:59:26;;;;;;;;;;;;;;;30.24;35.99;94236.63;5040487;28;9327;-62
2023/06/19 07:02:13;;;;;;;;;;;;;;;30.23;37.40;94240.66;5023872;28;7239;-62
2023/06/19 07:04:39;;;;;;;;;;;;;;;30.23;36.90;94237.19;5017407;28;7349;-62
2023/06/19 07:07:25;;;;;;;;;;;;;;;30.21;36.31;94232.16;5044507;28;7303;-63
2023/06/19 07:09:57;;;;;;;;;;;;;;;30.24;37.18;94228.28;5044305;28;7126;-62
2023/06/19 07:12:28;;;;;;;;;;;;;;;30.26;37.15;94222.94;5036745;28;7007;-63
2023/06/19 07:15:28;;;;;;;;;;;;;;;30.26;36.64;94222.94;5034693;28;7113;-63
2023/06/19 07:18:06;;;;;;;;;;;;;;;30.31;37.07;94216.53;4990184;28;7171;-63
2023/06/19 07:21:05;;;;;;;;;;;;;;;30.32;37.38;94211.75;4992497;28;8978;-63
2023/06/19 07:23:32;;;;;;;;;;;;;;;30.35;37.31;94216.19;4949718;28;7233;-63
2023/06/19 07:26:09;;;;;;;;;;;;;;;30.37;36.97;94208.78;4950606;28;9247;-63
2023/06/19 07:29:13;;;;;;;;;;;;;;;30.37;37.08;94206.00;4944547;28;8673;-63
2023/06/19 07:31:50;;;;;;;;;;;;;;;30.37;37.25;94205.28;4869927;29;7030;-62
2023/06/19 07:34:16;;;;;;;;;;;;;;;30.34;36.36;94196.00;4884853;29;7225;-62
2023/06/19 07:36:56;;;;;;;;;;;;;;;30.37;37.06;94200.47;4901717;29;9126;-62
2023/06/19 07:39:28;;;;;;;;;;;;;;;30.35;37.21;94202.31;4868126;29;9000;-62
2023/06/19 07:42:04;;;;;;;;;;;;;;;30.35;38.09;94196.75;4868950;29;7237;-63
2023/06/19 07:44:31;;;;;;;;;;;;;;;30.32;37.53;94197.84;4886367;29;7111;-62
2023/06/19 07:47:18;;;;;;;;;;;;;;;30.31;37.28;94191.56;4869639;29;7249;-62
2023/06/19 07:50:03;;;;;;;;;;;;;;;30.32;37.17;94195.81;4870422;29;9789;-62
2023/06/19 07:52:42;;;;;;;;;;;;;;;30.33;37.23;94196.56;4899618;29;7360;-62
2023/06/19 07:55:08;;;;;;;;;;;;;;;30.32;36.95;94187.47;4888890;29;7010;-62
2023/06/19 07:58:05;;;;;;;;;;;;;;;30.36;38.20;94185.09;4884034;29;9047;-62
2023/06/19 08:00:33;;;;;;;;;;;;;;;30.34;38.44;94178.63;4845021;29;7008;-62
2023/06/19 08:03:10;;;;;;;;;;;;;;;30.34;38.09;94179.34;4879541;29;9383;-62
2023/06/19 08:05:37;;;;;;;;;;;;;;;30.36;38.07;94170.50;4910038;28;7068;-62
2023/06/19 08:08:38;;;;;;;;;;;;;;;30.37;37.37;94183.06;4937162;28;8697;-61
2023/06/19 08:11:04;;;;;;;;;;;;;;;30.37;37.77;94185.84;4938589;28;9785;-62
2023/06/19 08:14:01;;;;;;;;;;;;;;;30.36;38.45;94176.78;4937754;28;7128;-61
2023/06/19 08:20:08;;;;;;;;;;;;;;;30.40;37.59;94176.44;4907134;29;9043;-63
2023/06/19 08:22:34;;;;;;;;;;;;;;;30.39;37.41;94172.91;4900240;29;9893;-63
2023/06/19 08:25:15;;;;;;;;;;;;;;;30.41;38.43;94169.56;4900895;29;7427;-62
2023/06/19 08:27:57;;;;;;;;;;;;;;;30.39;38.70;94167.34;4900910;29;9611;-62
2023/06/19 08:30:47;;;;;;;;;;;;;;;30.43;38.78;94164.97;4884446;29;9391;-62
2023/06/19 08:33:18;;;;;;;;;;;;;;;30.44;37.84;94160.16;4902101;29;8987;-62
2023/06/19 08:36:01;;;;;;;;;;;;;;;30.47;38.93;94159.81;4901727;29;8724;-62
2023/06/19 08:39:06;;;;;;;;;;;;;;;30.53;38.05;94167.97;4944182;28;7273;-62
2023/06/19 08:41:55;;;;;;;;;;;;;;;30.52;37.75;94172.78;4946478;28;7552;-62
2023/06/19 08:44:49;;;;;;;;;;;;;;;30.53;37.27;94167.97;4948645;28;8171;-62
2023/06/19 08:47:30;;;;;;;;;;;;;;;30.51;37.69;94168.50;4961135;28;7253;-62
2023/06/19 08:50:30;;;;;;;;;;;;;;;30.50;38.35;94175.38;4948514;28;8655;-62
2023/06/19 08:53:05;;;;;;;;;;;;;;;30.50;37.79;94169.06;4863085;29;7232;-62
2023/06/19 08:55:57;;;;;;;;;;;;;;;30.48;38.40;94166.84;4911936;29;7023;-62
2023/06/19 08:58:32;;;;;;;;;;;;;;;30.44;37.59;94160.16;4910249;29;7580;-62
2023/06/19 09:01:13;;;;;;;;;;;;;;;30.44;38.01;94169.25;4905911;29;9048;-62
2023/06/19 09:03:51;;;;;;;;;;;;;;;30.46;38.03;94163.88;4905260;29;7226;-62
2023/06/19 09:06:20;;;;;;;;;;;;;;;30.49;38.27;94162.03;4906882;29;9054;-61
2023/06/19 09:08:57;;;;;;;;;;;;;;;30.50;38.43;94161.50;4924066;29;9171;-62
2023/06/19 09:11:43;;;;;;;;;;;;;;;30.53;37.92;94154.84;4910942;29;9370;-62
2023/06/19 09:14:43;;;;;;;;;;;;;;;30.60;38.33;94169.31;4897683;29;7651;-62
2023/06/19 09:17:36;;;;;;;;;;;;;;;30.60;38.25;94158.19;4873097;29;7258;-62
2023/06/19 09:20:08;;;;;;;;;;;;;;;30.60;38.48;94160.97;4877527;29;9114;-61
2023/06/19 09:22:37;;;;;;;;;;;;;;;30.59;38.69;94162.25;4876040;29;7234;-62
2023/06/19 09:25:04;;;;;;;;;;;;;;;30.59;38.02;94162.25;4858971;29;7168;-62
2023/06/19 09:27:33;;;;;;;;;;;;;;;30.57;37.72;94167.63;4876045;29;8332;-62
2023/06/19 09:30:02;;;;;;;;;;;;;;;30.54;38.03;94169.44;4950625;28;10088;-62
2023/06/19 09:32:29;;;;;;;;;;;;;;;30.57;38.97;94173.16;4969844;28;7037;-62
2023/06/19 09:35:00;;;;;;;;;;;;;;;30.57;38.04;94173.91;4974082;28;7277;-61
2023/06/19 09:38:22;;;;;;;;;;;;;;;30.61;39.10;94171.53;4971360;28;9060;-61
2023/06/19 09:41:35;;;;;;;;;;;;;;;30.65;39.02;94165.59;4971853;28;7043;-61
2023/06/19 09:44:22;;;;;;;;;;;;;;;30.65;38.93;94162.81;4971021;28;9333;-61
2023/06/19 09:47:22;;;;;;;;;;;;;;;30.66;38.36;94164.31;4973801;28;7118;-61
2023/06/19 09:50:00;;;;;;;;;;;;;;;30.66;38.12;94164.31;4971413;28;8629;-61
2023/06/19 09:52:27;;;;;;;;;;;;;;;30.66;38.96;94164.31;4974380;28;8786;-61
2023/06/19 09:55:09;;;;;;;;;;;;;;;30.65;39.94;94162.81;5038006;28;7688;-60
2023/06/19 09:57:48;;;;;;;;;;;;;;;30.71;40.06;94160.66;5038559;28;7287;-61
2023/06/19 10:00:52;;;;;;;;;;;;;;;30.74;39.64;94159.53;5037807;28;8715;-61
2023/06/19 10:03:19;;;;;;;;;;;;;;;30.74;39.97;94148.41;5035549;28;9104;-61
2023/06/19 10:06:32;;;;;;;;;;;;;;;30.74;40.56;94148.41;5027709;28;7211;-61
2023/06/19 10:09:18;;;;;;;;;;;;;;;30.77;39.49;94153.63;5056013;28;7310;-61
2023/06/19 10:11:55;;;;;;;;;;;;;;;30.75;38.84;94142.34;5044908;28;9454;-61
2023/06/19 10:14:25;;;;;;;;;;;;;;;30.78;38.73;94148.78;5039759;28;7337;-61
2023/06/19 10:16:54;;;;;;;;;;;;;;;30.74;38.43;94140.84;5042450;28;8005;-61
2023/06/19 10:19:35;;;;;;;;;;;;;;;30.74;38.33;94143.63;5023236;28;7032;-61
2023/06/19 10:22:24;;;;;;;;;;;;;;;30.74;38.59;94142.88;5014264;28;7344;-62
2023/06/19 10:24:50;;;;;;;;;;;;;;;30.74;37.78;94143.63;5035156;28;9165;-62
2023/06/19 10:27:41;;;;;;;;;;;;;;;30.77;37.11;94147.31;5040253;28;8934;-62
2023/06/19 10:30:18;;;;;;;;;;;;;;;30.77;37.71;94148.06;5042616;28;9000;-61
2023/06/19 10:32:46;;;;;;;;;;;;;;;30.79;37.60;94139.19;5055710;28;7104;-61
2023/06/19 10:35:39;;;;;;;;;;;;;;;30.81;35.79;94136.59;5054192;28;8892;-61
2023/06/19 10:38:08;;;;;;;;;;;;;;;30.83;35.70;94139.56;5041476;28;9062;-61
2023/06/19 10:40:58;;;;;;;;;;;;;;;30.85;35.82;94134.94;5041430;28;9180;-62
2023/06/19 10:43:33;;;;;;;;;;;;;;;30.88;35.71;94130.34;5030438;28;7257;-61
2023/06/19 10:46:23;;;;;;;;;;;;;;;30.95;35.97;94135.91;5036222;28;7405;-62
2023/06/19 10:49:13;;;;;;;;;;;;;;;31.04;35.51;94135.38;5054633;28;9005;-61
2023/06/19 10:51:46;;;;;;;;;;;;;;;31.08;35.22;94127.41;5031094;28;7322;-61
2023/06/19 10:54:16;;;;;;;;;;;;;;;31.09;35.00;94128.16;5030872;28;9442;-61
2023/06/19 10:57:16;;;;;;;;;;;;;;;31.13;34.01;94131.31;5053180;28;7001;-62
2023/06/19 10:59:53;;;;;;;;;;;;;;;31.16;34.49;94127.44;5028400;28;7263;-61
2023/06/19 11:02:23;;;;;;;;;;;;;;;31.17;34.50;94126.13;5028605;28;9114;-61
2023/06/19 11:04:53;;;;;;;;;;;;;;;31.18;33.44;94122.81;5040077;28;8710;-61
2023/06/19 11:07:24;;;;;;;;;;;;;;;31.17;34.88;94124.09;5054918;28;8892;-62
2023/06/19 11:10:07;;;;;;;;;;;;;;;31.19;34.20;94131.88;5041238;28;7170;-61
2023/06/19 11:12:34;;;;;;;;;;;;;;;31.17;33.88;94112.97;5026546;28;7381;-62
2023/06/19 11:15:18;;;;;;;;;;;;;;;31.17;33.36;94115.75;5040464;28;7100;-61
2023/06/19 11:18:01;;;;;;;;;;;;;;;31.15;32.90;94114.81;5035711;28;9422;-61
2023/06/19 11:20:28;;;;;;;;;;;;;;;31.12;33.30;94104.84;5035377;28;9065;-63
2023/06/19 11:23:03;;;;;;;;;;;;;;;31.11;34.16;94112.41;5036987;28;7277;-61
2023/06/19 11:25:49;;;;;;;;;;;;;;;31.09;34.28;94112.25;5031113;28;7099;-61
2023/06/19 11:28:47;;;;;;;;;;;;;;;31.07;34.34;94108.53;5031686;28;7357;-61
2023/06/19 11:31:13;;;;;;;;;;;;;;;31.07;34.47;94105.75;4959608;28;9475;-61
2023/06/19 11:34:08;;;;;;;;;;;;;;;31.08;34.56;94107.25;4962669;28;9471;-61
2023/06/19 11:36:48;;;;;;;;;;;;;;;31.07;34.19;94103.72;4963422;28;7256;-61
2023/06/19 11:39:15;;;;;;;;;;;;;;;31.07;34.04;94097.41;5001578;28;9155;-61
2023/06/19 11:42:18;;;;;;;;;;;;;;;31.08;33.13;94098.91;4965202;28;9174;-61
2023/06/19 11:45:02;;;;;;;;;;;;;;;31.05;34.29;94094.44;4929516;28;7187;-61
2023/06/19 11:48:19;;;;;;;;;;;;;;;31.04;33.49;94090.94;4952673;28;7240;-61
2023/06/19 11:50:51;;;;;;;;;;;;;;;31.05;34.01;94088.91;4907203;29;7082;-61
2023/06/19 11:53:36;;;;;;;;;;;;;;;31.06;33.58;94080.00;4905191;29;9279;-61
2023/06/19 11:56:06;;;;;;;;;;;;;;;31.08;34.01;94085.75;4903504;29;9404;-61
2023/06/19 11:58:53;;;;;;;;;;;;;;;31.09;33.53;94078.91;4905455;29;7267;-61
2023/06/19 12:01:38;;;;;;;;;;;;;;;31.10;34.13;94068.53;4903950;29;7485;-60
2023/06/19 12:04:06;;;;;;;;;;;;;;;31.09;33.46;94062.22;4904913;29;8980;-60
2023/06/19 12:06:35;;;;;;;;;;;;;;;31.11;34.18;94064.44;4908755;28;8961;-60
2023/06/19 12:09:04;;;;;;;;;;;;;;;31.15;34.27;94062.03;4953198;28;7051;-60
2023/06/19 12:11:47;;;;;;;;;;;;;;;31.15;34.21;94059.25;4953590;28;8957;-60
2023/06/19 12:14:14;;;;;;;;;;;;;;;31.19;34.44;94071.47;4955937;28;9437;-60
2023/06/19 12:17:14;;;;;;;;;;;;;;;31.21;33.88;94070.94;4953699;28;9033;-60
2023/06/19 12:19:50;;;;;;;;;;;;;;;31.21;34.36;94068.88;4924944;28;9155;-60
2023/06/19 12:22:19;;;;;;;;;;;;;;;31.18;34.14;94064.47;4945729;28;7791;-60
2023/06/19 12:24:47;;;;;;;;;;;;;;;31.15;32.88;94062.78;4962506;28;7258;-62
2023/06/19 12:27:22;;;;;;;;;;;;;;;31.11;33.22;94064.44;4996422;28;9290;-62
2023/06/19 12:29:52;;;;;;;;;;;;;;;31.04;32.50;94054.06;4999286;28;7227;-62
2023/06/19 12:32:22;;;;;;;;;;;;;;;31.05;33.33;94067.41;4997720;28;7032;-62
2023/06/19 12:34:49;;;;;;;;;;;;;;;31.03;33.53;94053.34;4997296;28;7376;-62
2023/06/19 12:37:18;;;;;;;;;;;;;;;31.06;32.90;94057.03;4987513;28;8085;-61
2023/06/19 12:39:47;;;;;;;;;;;;;;;31.02;33.49;94043.50;5011223;28;7278;-62
2023/06/19 12:42:13;;;;;;;;;;;;;;;31.07;34.07;94052.97;5008829;28;7264;-63
2023/06/19 12:44:41;;;;;;;;;;;;;;;31.08;33.70;94046.13;4980092;28;7243;-62
2023/06/19 12:47:42;;;;;;;;;;;;;;;31.11;34.03;94050.56;4996598;28;7310;-62
2023/06/19 12:50:19;;;;;;;;;;;;;;;31.17;34.02;94048.31;4949405;28;9785;-62
2023/06/19 12:52:58;;;;;;;;;;;;;;;31.20;34.27;94047.22;4951146;28;8774;-62
2023/06/19 12:55:26;;;;;;;;;;;;;;;31.21;34.06;94045.94;4970946;28;7265;-62
2023/06/19 13:01:33;;;;;;;;;;;;;;;31.22;33.99;94036.28;4989934;28;7957;-62
2023/06/19 13:04:34;;;;;;;;;;;;;;;31.22;34.39;94034.25;4987979;28;7035;-62
2023/06/19 13:07:39;;;;;;;;;;;;;;;31.23;34.27;94032.94;4956988;28;7426;-62
2023/06/19 13:10:14;;;;;;;;;;;;;;;31.25;34.89;94030.34;4943241;28;9113;-62
2023/06/19 13:12:52;;;;;;;;;;;;;;;31.25;34.83;94024.06;4960262;28;7589;-62
2023/06/19 13:15:19;;;;;;;;;;;;;;;31.23;34.56;94029.44;4962341;28;7509;-62
2023/06/19 13:17:55;;;;;;;;;;;;;;;31.21;33.78;94026.50;4959913;28;9179;-62
2023/06/19 13:20:50;;;;;;;;;;;;;;;31.20;33.69;94027.78;4958727;28;7048;-62
2023/06/19 13:23:25;;;;;;;;;;;;;;;31.20;33.88;94020.19;4958947;28;6885;-62
2023/06/19 13:26:22;;;;;;;;;;;;;;;31.26;34.40;94025.53;4963358;28;9047;-61
2023/06/19 13:28:58;;;;;;;;;;;;;;;31.28;33.86;94025.72;4975585;28;7063;-62
2023/06/19 13:31:25;;;;;;;;;;;;;;;31.27;34.63;94015.91;4991300;28;7446;-62
2023/06/19 13:34:07;;;;;;;;;;;;;;;31.26;33.75;94022.75;4974126;28;6869;-62
2023/06/19 13:36:58;;;;;;;;;;;;;;;31.25;33.97;94027.56;4989657;28;7260;-62
2023/06/19 13:39:26;;;;;;;;;;;;;;;31.21;34.32;94029.97;4989742;28;7219;-63
2023/06/19 13:42:01;;;;;;;;;;;;;;;31.24;33.31;94033.69;4967628;28;7253;-63
2023/06/19 13:44:48;;;;;;;;;;;;;;;31.25;34.26;94035.19;5006204;28;9067;-63
2023/06/19 13:47:50;;;;;;;;;;;;;;;31.25;33.08;94027.56;4988012;28;7046;-62
2023/06/19 13:50:18;;;;;;;;;;;;;;;31.24;32.54;94033.69;4969660;28;7034;-63
2023/06/19 13:52:59;;;;;;;;;;;;;;;31.25;33.64;94030.34;4953332;28;9214;-63
2023/06/19 13:55:55;;;;;;;;;;;;;;;31.31;32.63;94038.50;4953336;28;7040;-63
2023/06/19 13:58:45;;;;;;;;;;;;;;;31.27;32.71;94021.47;4970882;28;9167;-62
2023/06/19 14:01:12;;;;;;;;;;;;;;;31.31;32.86;94032.19;4966943;28;7030;-63
2023/06/19 14:03:54;;;;;;;;;;;;;;;31.30;33.22;94025.91;4964763;28;8438;-63
2023/06/19 14:06:20;;;;;;;;;;;;;;;31.29;34.01;94013.31;4966505;28;7710;-62
2023/06/19 14:08:49;;;;;;;;;;;;;;;31.30;33.36;94014.78;4966693;28;7773;-62